sensor_id;sensor_type;location;lat;lon;timestamp;temperature;humidity
7936;DHT22;4013;49.744;8.118;2023-12-14T05:31:16;7.50;99.90
7936;DHT22;4013;49.744;8.118;2023-12-14T05:33:43;7.50;99.90
7936;DHT22;4013;49.744;8.118;2023-12-14T05:36:10;7.50;99.90
7936;DHT22;4013;49.744;8.118;2023-12-14T05:38:37;7.50;99.90
7936;DHT22;4013;49.744;8.118;2023-12-14T05:41:04;7.50;99.90
7936;DHT22;4013;49.744;8.118;2023-12-14T05:43:31;7.50;99.90
7936;DHT22;4013;49.744;8.118;2023-12-14T05:45:58;7.50;99.90
7936;DHT22;4013;49.744;8.118;2023-12-14T05:48:26;7.50;99.90
7936;DHT22;4013;49.744;8.118;2023-12-14T05:50:53;7.40;99.90
7936;DHT22;4013;49.744;8.118;2023-12-14T05:53:20;7.40;99.90
7936;DHT22;4013;49.744;8.118;2023-12-14T05:55:47;7.40;99.90
7936;DHT22;4013;49.744;8.118;2023-12-14T05:58:13;7.50;99.90
7936;DHT22;4013;49.744;8.118;2023-12-14T06:00:40;7.50;99.90
7936;DHT22;4013;49.744;8.118;2023-12-14T06:03:07;7.50;99.90
7936;DHT22;4013;49.744;8.118;2023-12-14T06:05:35;7.50;99.90
7936;DHT22;4013;49.744;8.118;2023-12-14T06:08:01;7.50;99.90
7936;DHT22;4013;49.744;8.118;2023-12-14T06:10:28;7.50;99.90
7936;DHT22;4013;49.744;8.118;2023-12-14T06:12:56;7.50;99.90
7936;DHT22;4013;49.744;8.118;2023-12-14T06:15:22;7.60;99.90
7936;DHT22;4013;49.744;8.118;2023-12-14T06:17:49;7.50;99.90
7936;DHT22;4013;49.744;8.118;2023-12-14T06:20:16;7.50;99.90
7936;DHT22;4013;49.744;8.118;2023-12-14T06:22:44;7.50;99.90
7936;DHT22;4013;49.744;8.118;2023-12-14T06:25:11;7.50;99.90
7936;DHT22;4013;49.744;8.118;2023-12-14T06:27:38;7.60;99.90
7936;DHT22;4013;49.744;8.118;2023-12-14T06:30:05;7.50;99.90
7936;DHT22;4013;49.744;8.118;2023-12-14T06:32:34;7.60;99.90
7936;DHT22;4013;49.744;8.118;2023-12-14T06:35:00;7.50;99.90
7936;DHT22;4013;49.744;8.118;2023-12-14T06:37:27;7.60;99.90
7936;DHT22;4013;49.744;8.118;2023-12-14T06:39:56;7.60;99.90
7936;DHT22;4013;49.744;8.118;2023-12-14T06:42:22;7.60;99.90
7936;DHT22;4013;49.744;8.118;2023-12-14T06:44:49;7.60;99.90
7936;DHT22;4013;49.744;8.118;2023-12-14T06:47:16;7.60;99.90
7936;DHT22;4013;49.744;8.118;2023-12-14T06:49:43;7.60;99.90
7936;DHT22;4013;49.744;8.118;2023-12-14T06:52:09;7.70;99.90
7936;DHT22;4013;49.744;8.118;2023-12-14T06:54:36;7.70;99.90
7936;DHT22;4013;49.744;8.118;2023-12-14T06:57:05;7.60;99.90
7936;DHT22;4013;49.744;8.118;2023-12-14T06:59:32;7.60;99.90
7936;DHT22;4013;49.744;8.118;2023-12-14T07:01:59;7.60;99.90
7936;DHT22;4013;49.744;8.118;2023-12-14T07:04:26;7.60;99.90
7936;DHT22;4013;49.744;8.118;2023-12-14T07:06:52;7.60;99.90
7936;DHT22;4013;49.744;8.118;2023-12-14T07:09:19;7.50;99.90
7936;DHT22;4013;49.744;8.118;2023-12-14T07:11:48;7.50;99.90
7936;DHT22;4013;49.744;8.118;2023-12-14T07:14:16;7.50;99.90
7936;DHT22;4013;49.744;8.118;2023-12-14T07:16:42;7.60;99.90
7936;DHT22;4013;49.744;8.118;2023-12-14T07:19:09;7.60;99.90
7936;DHT22;4013;49.744;8.118;2023-12-14T07:21:37;7.60;99.90
7936;DHT22;4013;49.744;8.118;2023-12-14T07:24:04;7.60;99.90
7936;DHT22;4013;49.744;8.118;2023-12-14T07:26:31;7.60;99.90
7936;DHT22;4013;49.744;8.118;2023-12-14T07:28:57;7.60;99.90
7936;DHT22;4013;49.744;8.118;2023-12-14T07:31:26;7.60;99.90
7936;DHT22;4013;49.744;8.118;2023-12-14T07:33:54;7.60;99.90
7936;DHT22;4013;49.744;8.118;2023-12-14T07:36:21;7.60;99.90
7936;DHT22;4013;49.744;8.118;2023-12-14T07:38:48;7.60;99.90
7936;DHT22;4013;49.744;8.118;2023-12-14T07:41:15;7.50;99.90
7936;DHT22;4013;49.744;8.118;2023-12-14T07:43:42;7.50;99.90
7936;DHT22;4013;49.744;8.118;2023-12-14T07:46:09;7.50;99.90
7936;DHT22;4013;49.744;8.118;2023-12-14T07:48:37;7.50;99.90
7936;DHT22;4013;49.744;8.118;2023-12-14T07:51:04;7.50;99.90
7936;DHT22;4013;49.744;8.118;2023-12-14T07:53:30;7.60;99.90
7936;DHT22;4013;49.744;8.118;2023-12-14T07:55:57;7.70;99.90
7936;DHT22;4013;49.744;8.118;2023-12-14T07:58:27;7.60;99.90
7936;DHT22;4013;49.744;8.118;2023-12-14T08:00:54;7.70;99.90
7936;DHT22;4013;49.744;8.118;2023-12-14T08:03:20;7.70;99.90
7936;DHT22;4013;49.744;8.118;2023-12-14T08:05:48;7.70;99.90
7936;DHT22;4013;49.744;8.118;2023-12-14T08:08:15;7.70;99.90
7936;DHT22;4013;49.744;8.118;2023-12-14T08:10:42;7.70;99.90
7936;DHT22;4013;49.744;8.118;2023-12-14T08:13:08;7.80;99.90
7936;DHT22;4013;49.744;8.118;2023-12-14T08:15:35;7.80;99.90
7936;DHT22;4013;49.744;8.118;2023-12-14T08:18:02;7.80;99.90
7936;DHT22;4013;49.744;8.118;2023-12-14T08:20:29;7.80;99.90
7936;DHT22;4013;49.744;8.118;2023-12-14T08:22:58;7.80;99.90
7936;DHT22;4013;49.744;8.118;2023-12-14T08:25:25;7.80;99.90
7936;DHT22;4013;49.744;8.118;2023-12-14T08:27:52;7.80;99.90
7936;DHT22;4013;49.744;8.118;2023-12-14T08:30:19;7.80;99.90
7936;DHT22;4013;49.744;8.118;2023-12-14T08:32:46;7.90;99.90
7936;DHT22;4013;49.744;8.118;2023-12-14T08:35:13;7.90;99.90
7936;DHT22;4013;49.744;8.118;2023-12-14T08:37:39;7.90;99.90
7936;DHT22;4013;49.744;8.118;2023-12-14T08:40:08;7.90;99.90
7936;DHT22;4013;49.744;8.118;2023-12-14T08:42:35;7.90;99.90
7936;DHT22;4013;49.744;8.118;2023-12-14T08:45:02;7.90;99.90
7936;DHT22;4013;49.744;8.118;2023-12-14T08:47:29;8.00;99.90
7936;DHT22;4013;49.744;8.118;2023-12-14T08:49:56;7.90;99.90
7936;DHT22;4013;49.744;8.118;2023-12-14T08:52:22;8.00;99.90
7936;DHT22;4013;49.744;8.118;2023-12-14T08:54:49;8.10;99.90
7936;DHT22;4013;49.744;8.118;2023-12-14T08:57:17;8.00;99.90
7936;DHT22;4013;49.744;8.118;2023-12-14T08:59:44;8.00;99.90
7936;DHT22;4013;49.744;8.118;2023-12-14T09:02:10;8.00;99.90
7936;DHT22;4013;49.744;8.118;2023-12-14T09:04:37;8.10;99.90
7936;DHT22;4013;49.744;8.118;2023-12-14T09:07:04;8.10;99.90
7936;DHT22;4013;49.744;8.118;2023-12-14T09:09:31;8.00;99.90
7936;DHT22;4013;49.744;8.118;2023-12-14T09:11:58;8.10;99.90
7936;DHT22;4013;49.744;8.118;2023-12-14T09:14:26;8.10;99.90
7936;DHT22;4013;49.744;8.118;2023-12-14T09:16:53;8.10;99.90
7936;DHT22;4013;49.744;8.118;2023-12-14T09:19:20;8.10;99.90
7936;DHT22;4013;49.744;8.118;2023-12-14T09:21:47;8.20;99.90
7936;DHT22;4013;49.744;8.118;2023-12-14T09:24:13;8.20;99.90
7936;DHT22;4013;49.744;8.118;2023-12-14T09:26:40;8.30;99.90
7936;DHT22;4013;49.744;8.118;2023-12-14T09:29:07;8.20;99.90
7936;DHT22;4013;49.744;8.118;2023-12-14T09:31:35;8.20;99.90
7936;DHT22;4013;49.744;8.118;2023-12-14T09:34:02;8.30;99.90
7936;DHT22;4013;49.744;8.118;2023-12-14T09:36:29;8.20;99.90
7936;DHT22;4013;49.744;8.118;2023-12-14T09:38:56;8.10;99.90
7936;DHT22;4013;49.744;8.118;2023-12-14T09:41:23;8.10;99.90
7936;DHT22;4013;49.744;8.118;2023-12-14T09:43:49;8.20;99.90
7936;DHT22;4013;49.744;8.118;2023-12-14T09:46:17;8.10;99.90
7936;DHT22;4013;49.744;8.118;2023-12-14T09:48:45;8.10;99.90
7936;DHT22;4013;49.744;8.118;2023-12-14T09:51:12;8.10;99.90
7936;DHT22;4013;49.744;8.118;2023-12-14T09:53:39;8.20;99.90
7936;DHT22;4013;49.744;8.118;2023-12-14T09:56:06;8.20;99.90
7936;DHT22;4013;49.744;8.118;2023-12-14T09:58:32;8.20;99.90
7936;DHT22;4013;49.744;8.118;2023-12-14T10:00:59;8.20;99.90
7936;DHT22;4013;49.744;8.118;2023-12-14T10:03:27;8.20;99.90
7936;DHT22;4013;49.744;8.118;2023-12-14T10:05:56;8.30;99.90
7936;DHT22;4013;49.744;8.118;2023-12-14T10:08:22;8.40;99.90
7936;DHT22;4013;49.744;8.118;2023-12-14T10:10:50;8.30;99.90
7936;DHT22;4013;49.744;8.118;2023-12-14T10:13:18;8.30;99.90
7936;DHT22;4013;49.744;8.118;2023-12-14T10:15:46;8.40;99.90
7936;DHT22;4013;49.744;8.118;2023-12-14T10:18:16;8.30;99.90
7936;DHT22;4013;49.744;8.118;2023-12-14T10:20:44;8.40;99.90
7936;DHT22;4013;49.744;8.118;2023-12-14T10:23:12;8.50;99.90
7936;DHT22;4013;49.744;8.118;2023-12-14T10:25:39;8.50;99.90
7936;DHT22;4013;49.744;8.118;2023-12-14T10:28:05;8.50;99.90
7936;DHT22;4013;49.744;8.118;2023-12-14T10:30:33;8.60;99.90
7936;DHT22;4013;49.744;8.118;2023-12-14T10:33:00;8.60;99.90
7936;DHT22;4013;49.744;8.118;2023-12-14T10:35:27;8.50;99.90
7936;DHT22;4013;49.744;8.118;2023-12-14T10:37:53;8.50;99.90
7936;DHT22;4013;49.744;8.118;2023-12-14T10:40:23;8.50;99.90
7936;DHT22;4013;49.744;8.118;2023-12-14T10:42:51;8.60;99.90
